CheckWX is a tool to help pilots better visualize weather data.  It is not intended as a substitute for an official pre-flight weather briefing.

10:14:40 UTC

CYQX METAR
Gander International Airport
Gander, Canada
Current

1 hour ago

CYQX 200900Z 29019G25KT 15SM DRSN SCT030 SCT060 BKN095 M18/M24 A2956 RMK SC3SC1AC1 OCNL -SHSN SLP024
Observed
Feb-20 @ 09:00 UTC
Wind
  • 290° at 19 KTS
  • Gusting to 25 KTS
Visibility
24,140 meters
Flight Rules
VFR
Conditions
Low drifting Snow
Cloud Levels
  • Scattered at 3,000' AGL
  • Scattered at 6,000' AGL
  • Broken at 9,500' AGL
Temperature
-18°C / -0°F
Dewpoint
-24°C / -11°F
Humidity
60%
Altimeter
29.56" Hg
Pressure
1002.4 hPa
Previous

2 hours ago

CYQX 200800Z 29022G31KT 15SM -SHSN DRSN SCT030 BKN056 BKN100 M17/M23 A2954 RMK SC3SC2AC1 CVCTV CLD EMBD SLP016
Observed
Feb-20 @ 08:00 UTC
Wind
  • 290° at 22 KTS
  • Gusting to 31 KTS
Visibility
24,140 meters
Flight Rules
VFR
Conditions
Light Snow, Low drifting Snow
Cloud Levels
  • Scattered at 3,000' AGL
  • Broken at 5,600' AGL
  • Broken at 10,000' AGL
Temperature
-17°C / 1°F
Dewpoint
-23°C / -9°F
Humidity
60%
Altimeter
29.54" Hg
Pressure
1001.6 hPa
Previous

3 hours ago

CYQX 200720Z 29025G32KT 15SM DRSN FEW032 SCT058 BKN120 M16/M22 A2952 RMK SC1SC3AC1 SLP011
Observed
Feb-20 @ 07:20 UTC
Wind
  • 290° at 25 KTS
  • Gusting to 32 KTS
Visibility
24,140 meters
Flight Rules
VFR
Conditions
Low drifting Snow
Cloud Levels
  • Few at 3,200' AGL
  • Scattered at 5,800' AGL
  • Broken at 12,000' AGL
Temperature
-16°C / 3°F
Dewpoint
-22°C / -8°F
Humidity
60%
Altimeter
29.52" Hg
Pressure
1001.1 hPa